createdAt,value
2022-08-14T00:05:26.123Z,1015.42
2022-08-14T00:15:03.271Z,1015.45
2022-08-14T00:24:40.235Z,1015.45
2022-08-14T00:34:35.787Z,1015.39
2022-08-14T00:43:54.310Z,1015.32
2022-08-14T00:53:31.533Z,1015.35
2022-08-14T01:03:08.702Z,1015.23
2022-08-14T01:12:47.936Z,1015.14
2022-08-14T01:22:26.730Z,1015.06
2022-08-14T01:31:59.970Z,1015.08
2022-08-14T01:41:36.661Z,1015.07
2022-08-14T01:51:18.952Z,1015.18
2022-08-14T02:00:52.410Z,1015.09
2022-08-14T02:10:28.395Z,1015.11
2022-08-14T02:20:05.584Z,1015.01
2022-08-14T02:29:56.653Z,1014.88
2022-08-14T02:39:20.350Z,1014.76
2022-08-14T02:49:02.405Z,1014.78
2022-08-14T02:58:33.703Z,1014.81
2022-08-14T03:08:11.202Z,1014.77
2022-08-14T03:17:56.806Z,1014.75
2022-08-14T03:27:26.475Z,1014.78
2022-08-14T03:37:29.780Z,1014.7
2022-08-14T03:46:53.263Z,1014.66
2022-08-14T04:05:52.835Z,1014.47
2022-08-14T04:15:30.012Z,1014.57
2022-08-14T04:25:07.444Z,1014.54
2022-08-14T04:44:26.461Z,1014.35
2022-08-14T04:53:59.433Z,1014.24
2022-08-14T05:03:37.624Z,1014.12
2022-08-14T05:13:15.781Z,1014
2022-08-14T05:22:56.091Z,1013.95
2022-08-14T05:32:29.665Z,1014.01
2022-08-14T05:42:09.759Z,1013.88
2022-08-14T05:51:45.183Z,1013.69
2022-08-14T06:01:22.885Z,1013.58
2022-08-14T06:11:01.017Z,1013.59
2022-08-14T06:20:39.184Z,1013.46
2022-08-14T06:30:16.969Z,1013.29
2022-08-14T06:39:55.242Z,1013.11
2022-08-14T06:49:40.230Z,1013.03
2022-08-14T06:59:15.714Z,1012.92
2022-08-14T07:08:49.295Z,1012.79
2022-08-14T07:18:28.017Z,1012.72
2022-08-14T07:28:06.190Z,1012.62
2022-08-14T07:37:44.506Z,1012.64
2022-08-14T07:57:06.225Z,1012.44
2022-08-14T08:06:39.386Z,1012.49
2022-08-14T08:16:18.635Z,1012.28
2022-08-14T08:35:46.703Z,1012.05
2022-08-14T08:45:15.200Z,1011.87
2022-08-14T08:54:53.205Z,1011.73
2022-08-14T09:04:31.806Z,1011.55
2022-08-14T09:14:10.466Z,1011.45
2022-08-14T09:24:26.047Z,1011.37
2022-08-14T09:33:28.153Z,1011.26
2022-08-14T09:43:07.538Z,1011.16
2022-08-14T09:52:59.363Z,1011.07
2022-08-14T10:02:46.267Z,1010.76
2022-08-14T10:12:31.031Z,1010.59
2022-08-14T10:23:11.692Z,1010.47
2022-08-14T10:31:54.125Z,1010.26
2022-08-14T10:51:18.868Z,1009.71
2022-08-14T11:10:37.090Z,1009.52
2022-08-14T11:20:18.484Z,1009.33
2022-08-14T11:30:00.454Z,1009.26
2022-08-14T11:39:34.104Z,1009.14
2022-08-14T11:49:03.329Z,1009.32
2022-08-14T11:58:43.913Z,1008.9
2022-08-14T12:08:07.209Z,1008.73
2022-08-14T12:17:47.450Z,1008.72
2022-08-14T12:27:10.355Z,1008.7
2022-08-14T12:36:38.787Z,1008.47
2022-08-14T12:46:35.832Z,1008.26
2022-08-14T12:56:18.237Z,1008.06
2022-08-14T13:05:33.211Z,1007.85
2022-08-14T13:15:15.978Z,1007.66
2022-08-14T13:24:37.145Z,1007.58
2022-08-14T13:34:33.089Z,1007.34
2022-08-14T13:44:16.631Z,1007.3
2022-08-14T14:03:16.982Z,1007.02
2022-08-14T14:13:09.938Z,1006.78
2022-08-14T14:23:02.048Z,1006.68
2022-08-14T14:32:34.268Z,1006.48
2022-08-14T14:42:13.546Z,1006.61
2022-08-14T14:51:38.685Z,1006.73
2022-08-14T15:01:17.751Z,1006.59
2022-08-14T15:10:53.204Z,1006.45
2022-08-14T15:20:31.315Z,1006.4
2022-08-14T15:30:08.720Z,1006.12
2022-08-14T15:39:46.728Z,1006.01
2022-08-14T15:49:25.436Z,1006.03
2022-08-14T15:58:56.268Z,1005.93
2022-08-14T16:08:33.849Z,1005.9
2022-08-14T16:18:09.043Z,1005.92
2022-08-14T16:37:20.501Z,1005.89
2022-08-14T16:56:36.183Z,1005.97
2022-08-14T17:06:25.742Z,1006
2022-08-14T17:15:47.349Z,1005.86
2022-08-14T17:25:24.451Z,1005.76
2022-08-14T17:35:01.705Z,1005.84
2022-08-14T17:44:45.333Z,1005.85
2022-08-14T17:54:15.477Z,1005.97
2022-08-14T18:03:53.076Z,1006.07
2022-08-14T18:13:50.451Z,1006.15
2022-08-14T18:23:05.876Z,1006.23
2022-08-14T18:32:47.012Z,1006.33
2022-08-14T18:42:23.312Z,1006.49
2022-08-14T18:51:56.285Z,1006.65
2022-08-14T19:01:32.918Z,1006.69
2022-08-14T19:11:09.731Z,1006.94
2022-08-14T19:20:46.497Z,1006.96
2022-08-14T19:30:23.598Z,1006.87
2022-08-14T19:40:00.291Z,1006.88
2022-08-14T19:59:14.322Z,1006.96
2022-08-14T20:09:06.799Z,1006.98
2022-08-14T20:18:48.846Z,1006.92
2022-08-14T20:28:29.191Z,1006.92
2022-08-14T20:47:20.105Z,1006.92
2022-08-14T20:56:57.221Z,1006.95
2022-08-14T21:06:49.267Z,1006.91
2022-08-14T21:16:26.104Z,1006.96
2022-08-14T21:25:48.313Z,1006.98
2022-08-14T21:35:25.805Z,1006.98
2022-08-14T21:45:02.668Z,1006.96
2022-08-14T21:54:49.196Z,1007.05
2022-08-14T22:04:32.007Z,1006.95
2022-08-14T22:13:54.689Z,1006.92
2022-08-14T22:23:32.176Z,1006.82
2022-08-14T22:33:09.978Z,1006.59
2022-08-14T22:42:57.640Z,1006.62
2022-08-14T22:52:32.294Z,1006.57
2022-08-14T23:02:03.688Z,1006.38
2022-08-14T23:11:38.059Z,1006.33
2022-08-14T23:21:15.422Z,1006.39
2022-08-14T23:30:52.483Z,1006.25
2022-08-14T23:40:30.118Z,1006.15
2022-08-14T23:50:07.803Z,1006.04
2022-08-14T23:59:44.811Z,1006.01
